Pagrindinis puslapis
METAR-TAF:

METAR-TAF

Oro uostai :

Port Sudan, Sudanas

platuma: 19-26N, ilguma: 037-14E, Aukštis: 138 m

METAR: trūkstamas

Laikas: 23:43 (21:43 UTC)

Prognozė

Ataskaita buvo paskelbta 4 valandos ir 43 minutes, ne 17:00 UTC
Prognozė galioja nuo 17 metu 18 UTC su 18 metu 24 UTC
Vėjas 10 kt iš Rytų/Šiaurės Rytų su gūsio iki 20 kt
Matomumas: 8000 m
Mažai debesys ne aukštis 3000 ft
Išsisklaidę debesys ne aukštis 13000 ft
Tapsmas
nuo 17 metu 22 UTC su 17 metu 24 UTC
Vėjas 8 kt iš Šiaurės Vakarų su gūsio iki 18 kt
Tapsmas
nuo 18 metu 10 UTC su 18 metu 12 UTC
Vėjas 12 kt iš Rytų su gūsio iki 22 kt

TAF: HSPN 171700Z 1718/1824 07010G20KT 8000 FEW030 SCT130 BECMG 1722/1724 32008G18KT BECMG 1810/1812 09012G22KT

Orai ataskaitas ir orų prognozės (METAR, TAF).

turimą stotys yra geltonos ir raudonos taškus žemėlapyje.

Perkelti pele per norėdami pamatyti stoties vardą.

Tada spustelėkite, norėdami matyti oro stebėjimo ir prognozės.

Norėdami pakeisti žemėlapį: spustelėkite ant žalios mygtukų su juodo kryžiaus žemyn,; žalią mygtuką su brūkšneliu, jei norite nutolinti; arba žalių rodyklių gretimoms žemėlapius.


METAR-TAF: